Timeline UpdatesTrip UpdatesNews PostsPvt PostsTravel TipsAdmin PostsConv PostsFollowed PostsChat RequestsBlog PostsPNR Posts

Disclaimer
Search
 
 
Wed Aug 20, 2014 10:22:09 ISTHomeTrainsΣChainsAtlasPNRForumGalleryNewsFAQTripsMembersLoginFeedback
No Recent News for this Train
Other Trains in the News **new
Latest...
..
Mon Dec 30, 2013 (12:01AM)
⇐ Return Journey: Train# 19038

19037/Avadh Express

Oct 03 2013 (4:56PM)
Change Departure Station:
Change Arrival Station:
Post a Train Travel TipPost a Train Travel Tip **new
Post a Comment/Question/Picture/VideoPost a Comment/Question/Picture/Video
Pantry/Catering
✓ Pantry Car Avbl
✓ Catering Avbl
Loco/Rake Reversals
LJN/Lucknow Junction (6);
RSA - Rake Sharing
19037/19038 have RSA with 19039/19040.
Rake/Coach Composition
Wap 4 BRC shed-SLR-S15-S14-S13-S12-S11-S10-S9-S8-S7-S6-S5-S4-S3-S2-S1-PC-B2-B1-A1-GEN-GEN-SLR; Total 23 Coaches
Loco
BDTS-LJN : BRC/CNB WAP-4; LJN-GKP : GD WDM-3A Entry NO.731585
News    PNR    Forum    Time-Table    Availability    Fare Chart    Map    Arr/Dep History    Trips    Gallery    ΣChains    X/O    Timeline    
Travel Time: 39h 0m    64 halts    Distance: 1845 km    Avg Speed: 47 km/hr
Type: Mail/Express
Zone: WR/Western
Departs @ 22:40 (Avg 1m late)
Platform# 1
S TW F 
Mumbai Bandra Terminus/BDTS 
Arrives @ 13:40 +2 nights (Avg 6m late)
Platform# 7
S T TF 
Gorakhpur Junction/GKP 

64 halts. 291 intermediate Stations between Mumbai Bandra Terminus and Gorakhpur Junction

Show ALL intermediate Stations  Show Old Time-Table

#CodeStation NameX/OArrivesAvgDepartsAvgHaltPFDay#KmSpeedElevZoneAddress
1BDTS»Mumbai Bandra Terminus (5)»  -22:40+1110.0234mWRMumbai 400050, Maharashtra
2ADHMumbai Andheri (9)  22:56+322:58+42m816.25012mWRMumbai, Maharashtra
3BVIMumbai Borivali (8)  23:13+923:18+95m6118.76719mWRMumbai - 400092, Maharashtra
4BORBoisar (3)  00:19+1600:21+162m2287.06017mWRBoisar Tel.no-02525-266626, Maharashtra
5VAPIVapi (3)X  01:31+1201:33+122m12157.26327mWRVapi, Gujarat
6BLValsad (3)XO  01:58+902:00+102m22183.46515mWRValsad, Gujarat
7STSurat (4)  03:03+803:08+85m12252.26519mWRSurat 395001, Gujarat
8AKVAnkleshwar Junction (4)X  03:54+1403:56+152m12302.17319mWRAnkleshwar, Gujarat
9BRCVadodara Junction (7)X  05:02+2205:12+2110m32382.07036mWRVadodara 390005, Gujarat
10GDAGodhra Junction (3)  06:15+1606:18+163m22455.880122mWRGodhra, Gujarat
11DHDDahod (3)  07:13+3607:15+362m32528.990313mWRDahod, Gujarat
12MGNMeghnagar (3)  07:37+4307:39+442m12562.174317mWRJhabua, Madhya Pradesh
13BMIBamnia (2)X  08:08+4808:10+492m12597.634392mWRBamnia, Madhya Pradesh
14RTMRatlam Junction (7)  09:30+1809:50+2020m62642.475495mWRRatlam, Madhya Pradesh
15KUHKhachrod (2)X  10:12+2710:14+272m22670.020497mWRUjjain, Madhya Pradesh
16NADNagda Junction (4)X  10:55+511:00+85m--2683.873468mWRNagda, Madhya Pradesh
17MEPMahidpur Road  11:14+1411:16+152m--2700.984493mWCRGogapur, Madhya Pradesh
18VMAVikramgarh Alot (2)X  11:33+1511:35+162m22724.873443mWCRKota Division, Madhya Pradesh
19CMUChau Mahla (3)  11:53+1711:55+172m22746.671426mWCRJhalawar, Rajasthan
20SVASuwasra (2)  12:08+1912:10+192m--2762.062450mWCRSuwasra, Madhya Pradesh
21SGZShamgarh (3)X  12:23+1912:25+192m--2775.481463mWCRMandsaur, Madhya Pradesh
22GOHGaroth (2)  12:33+2112:35+212m22786.276441mWCRMadhya Pradesh 458880, Madhya Pradesh
23BWMBhawani Mandi (3)X  12:53+2112:55+212m--2808.976384mWCRBhawani Mandi, Madhya Pradesh
24JHWJhalawar Road (3)  13:08+2213:10+222m--2825.374361mWCRJhalawar City, Rajasthan
25RMARamganj Mandi Junction (3)  13:20+2213:22+222m--2837.754358mWCRRamganj Mandi, Rajasthan
26MKXMorak (2)  13:32+2213:34+232m22846.881337mWCRMorak, Rajasthan
27DKNTDakaniya Talav (2)X  14:13+2714:15+292m12899.622278mWCRKota, Rajasthan
28KOTAKota Junction (5)X  14:40+2014:50+2110m12909.0110256mWCRKota, Rajasthan
29LKELakheri (3)  15:23+3915:25+412m22969.566228mWCRBundi, Rajasthan
30IDGIndargarh Sumerganj Mandi (2)  15:35+4415:37+442m22980.545247mWCRIndargarh, Rajasthan
31SWMSawai Madhopur Junction (4)X  16:25+2916:30+295m--21016.871266mWCRSawai Madhopur, Rajasthan
32GGCGangapur City (3)X  17:24+2817:25+321m--21080.782270mWCRGangapur, Rajasthan
33SMBJShri Mahabirji (3)  17:50+3717:52+362m221114.861240mWCRKarauli, Rajasthan
34HANHindaun City (2)X  18:02+3618:04+362m--21125.026230mWCRKarauli, Rajasthan
35BXNBayana Junction (3)  19:20+519:25+65m121157.847198mWCRBayana, Rajasthan
36RBSRupbas (2)X  20:09+620:11+152m121192.043178mNCRJAGNER ROAD, Rajasthan
37FTSFatehpur Sikri (2)  20:31+1120:33+162m121206.250176mNCRAgra, Uttar Pradesh
38KLBKiraoli (1)  20:48+1620:50+162m121218.636174mNCRKiraoli, Uttar Pradesh
39IDHIdgah Agra Junction (3)  21:26+1421:28+222m121240.28168mNCRAgra, Uttar Pradesh
40AFAgra Fort (3)  21:45+1821:55+2810m121242.415170mNCRRakabganj, Uttar Pradesh
41TDLTundla Junction (5)XO  23:25+2923:35+3410m321265.333167mNCRDistt.Firozabad, Uttar Pradesh
42FZDFirozabad (4)X  00:05+2900:07+332m231281.857164mNCRFirozabad, Uttar Pradesh
43SKBShikohabad Junction (4)X  00:28+3100:30+372m231301.785166mNCRDistrict Firozabad, Uttar Pradesh
44ETWEtawah (5)X  01:09+4201:11+472m331357.170154mNCRDistt. Etawah, Uttar Pradesh
45BNTBharthana (3)XO  01:28+4801:30+522m331377.048147mNCRBharthana, Uttar Pradesh
46PHDPhaphund (4)X  02:15+4102:17+452m331413.336146mNCRdist. Auraiya, Uttar Pradesh
47CNBKanpur Central (10)  04:35+204:45+310m--31496.550128mNCRKANPUR-208 001, Uttar Pradesh
48ONUnnao Junction (5)X  05:06+1805:08+182m--31513.942129mNRUnnao, Uttar Pradesh
49LJNLucknow Junction (6)↵¶06:25+706:50+1125m431567.712126mNERLucknow, Uttar Pradesh
50LCLucknow City (3)  07:14+907:16+122m--31572.527127mNERLucknow, Uttar Pradesh
51BNZBadshahnagar (2)  07:30+1207:35+125m--31578.843116mNERLucknow, Uttar Pradesh
52GTNRGomti Nagar (3)  07:41+1407:43+132m131583.045117mNERLucknow, Uttar Pradesh
53BBKBarabanki Junction (4)  08:10+1408:12+142m--31603.458122mNRPin-225001, Uttar Pradesh
54BUWBurhwal Junction (3)  08:40+2108:42+212m--31630.454119mNERBarabanki, Uttar Pradesh
55JLDJarwal Road (2)X  09:00+2409:02+262m--31646.557112mNERBehraich, Uttar Pradesh
56CLJColonelGanj (2)X  09:20+3109:22+312m--31663.833108mNERGonda, Uttar Pradesh
57GDGonda Junction (3)  10:15+1810:25+1610m231692.773110mNERGonda 271001, Uttar Pradesh
58MURMankapur Junction (5)X  10:48+2110:50+212m--31720.665104mNERDistrict Gonda, Uttar Pradesh
59MSWMaskanwa (2)  11:03+2311:05+232m--31734.633103mNERChhapaiya Rd, Uttar Pradesh
60SNCSwami Narayan Chhapia (2)11:13+2211:14+231m--31738.9114100mNERS Narayan Chpla, Uttar Pradesh
61BVBabhnan (2)  11:20+2911:22+292m--31750.366101mNERDistrict- Basti, Uttar Pradesh
62BSTBasti (4)  11:50+2411:55+235m231781.17790mNERBasti 272001, Uttar Pradesh
63KLDKhalilabad (3)  12:18+2812:20+292m--31810.63686mNERKhalilabad- 272175, Uttar Pradesh
64MHHMaghar (3)  12:34+2412:36+242m--31819.13383mNERNH 28. Distt- SantKabirNagar- 272173, Uttar Pradesh
65SWASahjanwa (2)X  12:51+1812:53+192m--31827.42280mNERGorakhpur - 273209, Uttar Pradesh
66GKP•Gorakhpur Junction (10)•  13:40+6-731844.6-84mNERGorakhpur 273001, Uttar Pradesh
Scroll to Top
Scroll to Bottom